sensor_id;sensor_type;location;lat;lon;timestamp;temperature;humidity
13686;DHT22;6915;48.296;8.874;2024-01-07T00:01:46;2.90;99.90
13686;DHT22;6915;48.296;8.874;2024-01-07T00:04:13;2.90;99.90
13686;DHT22;6915;48.296;8.874;2024-01-07T00:06:40;2.80;99.90
13686;DHT22;6915;48.296;8.874;2024-01-07T00:09:08;3.00;99.90
13686;DHT22;6915;48.296;8.874;2024-01-07T00:11:34;2.90;99.90
13686;DHT22;6915;48.296;8.874;2024-01-07T00:14:03;2.90;99.90
13686;DHT22;6915;48.296;8.874;2024-01-07T00:16:30;3.00;99.90
13686;DHT22;6915;48.296;8.874;2024-01-07T00:18:57;3.20;99.90
13686;DHT22;6915;48.296;8.874;2024-01-07T00:21:23;3.00;99.90
13686;DHT22;6915;48.296;8.874;2024-01-07T00:23:50;3.00;99.90
13686;DHT22;6915;48.296;8.874;2024-01-07T00:26:17;3.00;99.90
13686;DHT22;6915;48.296;8.874;2024-01-07T00:28:44;3.00;99.90
13686;DHT22;6915;48.296;8.874;2024-01-07T00:31:13;2.90;99.90
13686;DHT22;6915;48.296;8.874;2024-01-07T00:33:39;2.90;99.90
13686;DHT22;6915;48.296;8.874;2024-01-07T00:36:07;3.00;99.90
13686;DHT22;6915;48.296;8.874;2024-01-07T00:38:33;2.90;99.90
13686;DHT22;6915;48.296;8.874;2024-01-07T00:41:00;2.90;99.90
13686;DHT22;6915;48.296;8.874;2024-01-07T00:43:27;2.90;99.90
13686;DHT22;6915;48.296;8.874;2024-01-07T00:45:54;2.80;99.90
13686;DHT22;6915;48.296;8.874;2024-01-07T00:48:22;2.80;99.90
13686;DHT22;6915;48.296;8.874;2024-01-07T00:50:49;2.90;99.90
13686;DHT22;6915;48.296;8.874;2024-01-07T00:53:16;2.90;99.90
13686;DHT22;6915;48.296;8.874;2024-01-07T00:55:43;2.90;99.90
13686;DHT22;6915;48.296;8.874;2024-01-07T00:58:10;2.90;99.90
13686;DHT22;6915;48.296;8.874;2024-01-07T01:00:37;2.90;99.90
13686;DHT22;6915;48.296;8.874;2024-01-07T01:03:04;2.80;99.90
13686;DHT22;6915;48.296;8.874;2024-01-07T01:05:32;2.80;99.90
13686;DHT22;6915;48.296;8.874;2024-01-07T01:07:59;2.90;99.90
13686;DHT22;6915;48.296;8.874;2024-01-07T01:10:26;2.90;99.90
13686;DHT22;6915;48.296;8.874;2024-01-07T01:12:52;2.80;99.90
13686;DHT22;6915;48.296;8.874;2024-01-07T01:15:19;2.80;99.90
13686;DHT22;6915;48.296;8.874;2024-01-07T01:17:46;2.80;99.90
13686;DHT22;6915;48.296;8.874;2024-01-07T01:20:13;2.80;99.90
13686;DHT22;6915;48.296;8.874;2024-01-07T01:22:42;2.80;99.90
13686;DHT22;6915;48.296;8.874;2024-01-07T01:25:09;2.80;99.90
13686;DHT22;6915;48.296;8.874;2024-01-07T01:27:36;2.80;99.90
13686;DHT22;6915;48.296;8.874;2024-01-07T01:30:03;2.80;99.90
13686;DHT22;6915;48.296;8.874;2024-01-07T01:32:30;2.80;99.90
13686;DHT22;6915;48.296;8.874;2024-01-07T01:34:57;2.80;99.90
13686;DHT22;6915;48.296;8.874;2024-01-07T01:37:24;2.80;99.90
13686;DHT22;6915;48.296;8.874;2024-01-07T01:39:52;2.80;99.90
13686;DHT22;6915;48.296;8.874;2024-01-07T01:42:19;2.80;99.90
13686;DHT22;6915;48.296;8.874;2024-01-07T01:44:46;2.80;99.90
13686;DHT22;6915;48.296;8.874;2024-01-07T01:47:13;2.80;99.90
13686;DHT22;6915;48.296;8.874;2024-01-07T01:49:40;2.80;99.90
13686;DHT22;6915;48.296;8.874;2024-01-07T01:52:08;2.90;99.90
13686;DHT22;6915;48.296;8.874;2024-01-07T01:54:35;2.80;99.90
13686;DHT22;6915;48.296;8.874;2024-01-07T01:57:04;2.90;99.90
13686;DHT22;6915;48.296;8.874;2024-01-07T01:59:32;2.80;99.90
13686;DHT22;6915;48.296;8.874;2024-01-07T02:02:00;3.00;99.90
13686;DHT22;6915;48.296;8.874;2024-01-07T02:04:27;2.80;99.90
13686;DHT22;6915;48.296;8.874;2024-01-07T02:06:54;2.90;99.90
13686;DHT22;6915;48.296;8.874;2024-01-07T02:09:21;2.90;99.90
13686;DHT22;6915;48.296;8.874;2024-01-07T02:12:00;3.00;99.90
13686;DHT22;6915;48.296;8.874;2024-01-07T02:14:29;3.00;99.90
13686;DHT22;6915;48.296;8.874;2024-01-07T02:16:56;2.90;99.90
13686;DHT22;6915;48.296;8.874;2024-01-07T02:19:23;2.90;99.90
13686;DHT22;6915;48.296;8.874;2024-01-07T02:21:50;2.90;99.90
13686;DHT22;6915;48.296;8.874;2024-01-07T02:24:19;2.90;99.90
13686;DHT22;6915;48.296;8.874;2024-01-07T02:26:46;2.80;99.90
13686;DHT22;6915;48.296;8.874;2024-01-07T02:29:12;2.80;99.90
13686;DHT22;6915;48.296;8.874;2024-01-07T02:31:39;2.80;99.90
13686;DHT22;6915;48.296;8.874;2024-01-07T02:34:07;3.00;99.90
13686;DHT22;6915;48.296;8.874;2024-01-07T02:36:35;2.90;99.90
13686;DHT22;6915;48.296;8.874;2024-01-07T02:39:02;2.80;99.90
13686;DHT22;6915;48.296;8.874;2024-01-07T02:41:30;2.80;99.90
13686;DHT22;6915;48.296;8.874;2024-01-07T02:43:57;2.90;99.90
13686;DHT22;6915;48.296;8.874;2024-01-07T02:46:24;2.90;99.90
13686;DHT22;6915;48.296;8.874;2024-01-07T02:48:51;3.00;99.90
13686;DHT22;6915;48.296;8.874;2024-01-07T02:51:18;2.90;99.90
13686;DHT22;6915;48.296;8.874;2024-01-07T02:53:45;2.80;99.90
13686;DHT22;6915;48.296;8.874;2024-01-07T02:56:12;2.80;99.90
13686;DHT22;6915;48.296;8.874;2024-01-07T02:58:40;2.80;99.90
13686;DHT22;6915;48.296;8.874;2024-01-07T03:01:08;2.80;99.90
13686;DHT22;6915;48.296;8.874;2024-01-07T03:03:36;2.80;99.90
13686;DHT22;6915;48.296;8.874;2024-01-07T03:06:03;2.90;99.90
13686;DHT22;6915;48.296;8.874;2024-01-07T03:08:30;2.70;99.90
13686;DHT22;6915;48.296;8.874;2024-01-07T03:10:57;2.70;99.90
13686;DHT22;6915;48.296;8.874;2024-01-07T03:13:23;2.70;99.90
13686;DHT22;6915;48.296;8.874;2024-01-07T03:15:52;2.70;99.90
13686;DHT22;6915;48.296;8.874;2024-01-07T03:18:18;2.60;99.90
13686;DHT22;6915;48.296;8.874;2024-01-07T03:20:45;2.70;99.90
13686;DHT22;6915;48.296;8.874;2024-01-07T03:23:12;2.60;99.90
13686;DHT22;6915;48.296;8.874;2024-01-07T03:25:39;2.60;99.90
13686;DHT22;6915;48.296;8.874;2024-01-07T03:28:06;2.50;99.90
13686;DHT22;6915;48.296;8.874;2024-01-07T03:30:33;2.40;99.90
13686;DHT22;6915;48.296;8.874;2024-01-07T03:33:02;2.40;99.90
13686;DHT22;6915;48.296;8.874;2024-01-07T03:35:29;2.40;99.90
13686;DHT22;6915;48.296;8.874;2024-01-07T03:37:56;2.40;99.90
13686;DHT22;6915;48.296;8.874;2024-01-07T03:40:23;2.40;99.90
13686;DHT22;6915;48.296;8.874;2024-01-07T03:42:49;2.40;99.90
13686;DHT22;6915;48.296;8.874;2024-01-07T03:45:16;2.50;99.90
13686;DHT22;6915;48.296;8.874;2024-01-07T03:47:43;2.50;99.90
13686;DHT22;6915;48.296;8.874;2024-01-07T03:50:11;2.50;99.90
13686;DHT22;6915;48.296;8.874;2024-01-07T03:52:38;2.50;99.90
13686;DHT22;6915;48.296;8.874;2024-01-07T03:55:06;2.50;99.90
13686;DHT22;6915;48.296;8.874;2024-01-07T03:57:33;2.50;99.90
13686;DHT22;6915;48.296;8.874;2024-01-07T04:00:00;2.50;99.90
13686;DHT22;6915;48.296;8.874;2024-01-07T04:02:27;2.50;99.90
13686;DHT22;6915;48.296;8.874;2024-01-07T04:04:54;2.40;99.90
13686;DHT22;6915;48.296;8.874;2024-01-07T04:07:22;2.50;99.90
13686;DHT22;6915;48.296;8.874;2024-01-07T04:09:49;2.50;99.90
13686;DHT22;6915;48.296;8.874;2024-01-07T04:12:16;2.40;99.90
13686;DHT22;6915;48.296;8.874;2024-01-07T04:14:43;2.40;99.90
13686;DHT22;6915;48.296;8.874;2024-01-07T04:17:10;2.40;99.90
13686;DHT22;6915;48.296;8.874;2024-01-07T04:19:37;2.40;99.90
13686;DHT22;6915;48.296;8.874;2024-01-07T04:22:04;2.40;99.90
13686;DHT22;6915;48.296;8.874;2024-01-07T04:24:32;2.40;99.90
13686;DHT22;6915;48.296;8.874;2024-01-07T04:26:59;2.40;99.90
13686;DHT22;6915;48.296;8.874;2024-01-07T04:29:26;2.40;99.90
13686;DHT22;6915;48.296;8.874;2024-01-07T04:31:53;2.40;99.90
13686;DHT22;6915;48.296;8.874;2024-01-07T04:34:20;2.40;99.90
13686;DHT22;6915;48.296;8.874;2024-01-07T04:36:46;2.40;99.90
13686;DHT22;6915;48.296;8.874;2024-01-07T04:39:13;2.40;99.90
13686;DHT22;6915;48.296;8.874;2024-01-07T04:41:42;2.40;99.90
13686;DHT22;6915;48.296;8.874;2024-01-07T04:44:09;2.40;99.90
13686;DHT22;6915;48.296;8.874;2024-01-07T04:46:38;2.40;99.90
13686;DHT22;6915;48.296;8.874;2024-01-07T04:49:05;2.40;99.90
13686;DHT22;6915;48.296;8.874;2024-01-07T04:51:32;2.40;99.90
13686;DHT22;6915;48.296;8.874;2024-01-07T04:53:59;2.40;99.90
13686;DHT22;6915;48.296;8.874;2024-01-07T04:56:26;2.40;99.90
13686;DHT22;6915;48.296;8.874;2024-01-07T04:58:54;2.40;99.90
13686;DHT22;6915;48.296;8.874;2024-01-07T05:01:21;2.50;99.90
13686;DHT22;6915;48.296;8.874;2024-01-07T05:03:48;2.70;99.90
13686;DHT22;6915;48.296;8.874;2024-01-07T05:06:15;2.60;99.90
13686;DHT22;6915;48.296;8.874;2024-01-07T05:08:42;2.50;99.90
13686;DHT22;6915;48.296;8.874;2024-01-07T05:11:09;2.60;99.90
13686;DHT22;6915;48.296;8.874;2024-01-07T05:13:37;2.50;99.90
13686;DHT22;6915;48.296;8.874;2024-01-07T05:16:05;2.50;99.90
13686;DHT22;6915;48.296;8.874;2024-01-07T05:18:32;2.50;99.90
13686;DHT22;6915;48.296;8.874;2024-01-07T05:20:59;2.50;99.90
13686;DHT22;6915;48.296;8.874;2024-01-07T05:23:26;2.50;99.90
13686;DHT22;6915;48.296;8.874;2024-01-07T05:25:53;2.50;99.90
13686;DHT22;6915;48.296;8.874;2024-01-07T05:28:20;2.40;99.90
13686;DHT22;6915;48.296;8.874;2024-01-07T05:30:46;2.40;99.90
13686;DHT22;6915;48.296;8.874;2024-01-07T05:33:14;2.30;99.90
13686;DHT22;6915;48.296;8.874;2024-01-07T05:35:41;2.30;99.90
13686;DHT22;6915;48.296;8.874;2024-01-07T05:38:08;2.30;99.90
13686;DHT22;6915;48.296;8.874;2024-01-07T05:40:35;2.50;99.90
13686;DHT22;6915;48.296;8.874;2024-01-07T05:43:02;2.30;99.90
13686;DHT22;6915;48.296;8.874;2024-01-07T05:45:29;2.30;99.90
13686;DHT22;6915;48.296;8.874;2024-01-07T05:47:55;2.30;99.90
13686;DHT22;6915;48.296;8.874;2024-01-07T05:50:24;2.30;99.90
13686;DHT22;6915;48.296;8.874;2024-01-07T05:52:51;2.60;99.90
13686;DHT22;6915;48.296;8.874;2024-01-07T05:55:17;2.40;99.90
13686;DHT22;6915;48.296;8.874;2024-01-07T05:57:44;2.40;99.90
13686;DHT22;6915;48.296;8.874;2024-01-07T06:00:12;2.40;99.90
13686;DHT22;6915;48.296;8.874;2024-01-07T06:02:39;2.40;99.90
13686;DHT22;6915;48.296;8.874;2024-01-07T06:05:06;2.40;99.90
13686;DHT22;6915;48.296;8.874;2024-01-07T06:07:35;2.40;99.90
13686;DHT22;6915;48.296;8.874;2024-01-07T06:10:02;2.40;99.90
13686;DHT22;6915;48.296;8.874;2024-01-07T06:12:29;2.40;99.90
13686;DHT22;6915;48.296;8.874;2024-01-07T06:14:56;2.30;99.90
13686;DHT22;6915;48.296;8.874;2024-01-07T06:17:23;2.20;99.90
13686;DHT22;6915;48.296;8.874;2024-01-07T06:19:49;2.40;99.90
13686;DHT22;6915;48.296;8.874;2024-01-07T06:22:16;2.20;99.90
13686;DHT22;6915;48.296;8.874;2024-01-07T06:24:45;2.30;99.90
13686;DHT22;6915;48.296;8.874;2024-01-07T06:27:12;2.20;99.90
13686;DHT22;6915;48.296;8.874;2024-01-07T06:29:40;2.20;99.90
13686;DHT22;6915;48.296;8.874;2024-01-07T06:32:07;2.40;99.90
13686;DHT22;6915;48.296;8.874;2024-01-07T06:34:35;2.30;99.90
13686;DHT22;6915;48.296;8.874;2024-01-07T06:37:02;2.30;99.90
13686;DHT22;6915;48.296;8.874;2024-01-07T06:39:29;2.30;99.90
13686;DHT22;6915;48.296;8.874;2024-01-07T06:41:58;2.40;99.90
13686;DHT22;6915;48.296;8.874;2024-01-07T06:44:25;2.30;99.90
13686;DHT22;6915;48.296;8.874;2024-01-07T06:46:52;2.30;99.90
13686;DHT22;6915;48.296;8.874;2024-01-07T06:49:19;2.30;99.90
13686;DHT22;6915;48.296;8.874;2024-01-07T06:51:46;2.40;99.90
13686;DHT22;6915;48.296;8.874;2024-01-07T06:54:13;2.50;99.90
13686;DHT22;6915;48.296;8.874;2024-01-07T06:56:39;2.30;99.90
13686;DHT22;6915;48.296;8.874;2024-01-07T06:59:08;2.30;99.90
13686;DHT22;6915;48.296;8.874;2024-01-07T07:01:36;2.20;99.90
13686;DHT22;6915;48.296;8.874;2024-01-07T07:04:04;2.20;99.90
13686;DHT22;6915;48.296;8.874;2024-01-07T07:06:31;2.20;99.90
13686;DHT22;6915;48.296;8.874;2024-01-07T07:08:57;2.10;99.90
13686;DHT22;6915;48.296;8.874;2024-01-07T07:11:24;2.10;99.90
13686;DHT22;6915;48.296;8.874;2024-01-07T07:13:51;2.00;99.90
13686;DHT22;6915;48.296;8.874;2024-01-07T07:16:19;2.00;99.90
13686;DHT22;6915;48.296;8.874;2024-01-07T07:18:46;2.20;99.90
13686;DHT22;6915;48.296;8.874;2024-01-07T07:21:13;2.00;99.90
13686;DHT22;6915;48.296;8.874;2024-01-07T07:23:40;2.00;99.90
13686;DHT22;6915;48.296;8.874;2024-01-07T07:26:07;2.00;99.90
13686;DHT22;6915;48.296;8.874;2024-01-07T07:28:34;2.00;99.90
13686;DHT22;6915;48.296;8.874;2024-01-07T07:31:01;2.00;99.90
13686;DHT22;6915;48.296;8.874;2024-01-07T07:33:29;2.00;99.90
13686;DHT22;6915;48.296;8.874;2024-01-07T07:35:56;1.90;99.90
13686;DHT22;6915;48.296;8.874;2024-01-07T07:38:23;2.10;99.90
13686;DHT22;6915;48.296;8.874;2024-01-07T07:40:50;1.90;99.90
13686;DHT22;6915;48.296;8.874;2024-01-07T07:43:18;1.90;99.90
13686;DHT22;6915;48.296;8.874;2024-01-07T07:45:45;1.90;99.90
13686;DHT22;6915;48.296;8.874;2024-01-07T07:48:12;1.80;99.90
13686;DHT22;6915;48.296;8.874;2024-01-07T07:50:41;2.00;99.90
13686;DHT22;6915;48.296;8.874;2024-01-07T07:53:08;1.90;99.90
13686;DHT22;6915;48.296;8.874;2024-01-07T07:55:34;1.80;99.90
13686;DHT22;6915;48.296;8.874;2024-01-07T07:58:01;1.80;99.90
13686;DHT22;6915;48.296;8.874;2024-01-07T08:00:28;1.80;99.90
13686;DHT22;6915;48.296;8.874;2024-01-07T08:02:55;1.80;99.90
13686;DHT22;6915;48.296;8.874;2024-01-07T08:05:22;1.70;99.90
13686;DHT22;6915;48.296;8.874;2024-01-07T08:07:50;1.80;99.90
13686;DHT22;6915;48.296;8.874;2024-01-07T08:10:17;1.70;99.90
13686;DHT22;6915;48.296;8.874;2024-01-07T08:12:44;1.50;99.90
13686;DHT22;6915;48.296;8.874;2024-01-07T08:15:11;1.60;99.90
13686;DHT22;6915;48.296;8.874;2024-01-07T08:17:38;1.60;99.90
13686;DHT22;6915;48.296;8.874;2024-01-07T08:20:06;1.60;99.90
13686;DHT22;6915;48.296;8.874;2024-01-07T08:22:34;1.70;99.90
13686;DHT22;6915;48.296;8.874;2024-01-07T08:25:02;1.70;99.90
13686;DHT22;6915;48.296;8.874;2024-01-07T08:27:29;1.70;99.90
13686;DHT22;6915;48.296;8.874;2024-01-07T08:29:58;1.70;99.90
13686;DHT22;6915;48.296;8.874;2024-01-07T08:32:25;1.80;99.90
13686;DHT22;6915;48.296;8.874;2024-01-07T08:34:52;1.90;99.90
13686;DHT22;6915;48.296;8.874;2024-01-07T08:37:18;2.00;99.90
13686;DHT22;6915;48.296;8.874;2024-01-07T08:39:45;1.90;99.90
13686;DHT22;6915;48.296;8.874;2024-01-07T08:42:14;1.90;99.90
13686;DHT22;6915;48.296;8.874;2024-01-07T08:44:41;2.00;99.90
13686;DHT22;6915;48.296;8.874;2024-01-07T08:47:08;2.00;99.90
13686;DHT22;6915;48.296;8.874;2024-01-07T08:49:35;2.00;99.90
13686;DHT22;6915;48.296;8.874;2024-01-07T08:52:04;2.00;99.90
13686;DHT22;6915;48.296;8.874;2024-01-07T08:54:31;2.10;99.90
13686;DHT22;6915;48.296;8.874;2024-01-07T08:56:58;2.10;99.90
13686;DHT22;6915;48.296;8.874;2024-01-07T08:59:27;2.20;99.90
13686;DHT22;6915;48.296;8.874;2024-01-07T09:01:53;2.20;99.90
13686;DHT22;6915;48.296;8.874;2024-01-07T09:04:20;2.20;99.90
13686;DHT22;6915;48.296;8.874;2024-01-07T09:06:47;2.20;99.90
13686;DHT22;6915;48.296;8.874;2024-01-07T09:09:14;2.20;99.90
13686;DHT22;6915;48.296;8.874;2024-01-07T09:11:41;2.20;99.90
13686;DHT22;6915;48.296;8.874;2024-01-07T09:14:08;2.20;99.90
13686;DHT22;6915;48.296;8.874;2024-01-07T09:16:36;2.10;99.90
13686;DHT22;6915;48.296;8.874;2024-01-07T09:19:03;2.20;99.90
13686;DHT22;6915;48.296;8.874;2024-01-07T09:21:30;2.20;99.90
13686;DHT22;6915;48.296;8.874;2024-01-07T09:23:57;2.10;99.90
13686;DHT22;6915;48.296;8.874;2024-01-07T09:26:25;2.10;99.90
13686;DHT22;6915;48.296;8.874;2024-01-07T09:28:51;2.10;99.90
13686;DHT22;6915;48.296;8.874;2024-01-07T09:31:18;2.10;99.90
13686;DHT22;6915;48.296;8.874;2024-01-07T09:33:47;2.10;99.90
13686;DHT22;6915;48.296;8.874;2024-01-07T09:36:14;2.10;99.90
13686;DHT22;6915;48.296;8.874;2024-01-07T09:38:41;2.10;99.90
13686;DHT22;6915;48.296;8.874;2024-01-07T09:41:08;2.10;99.90
13686;DHT22;6915;48.296;8.874;2024-01-07T09:43:35;2.10;99.90
13686;DHT22;6915;48.296;8.874;2024-01-07T09:46:02;2.10;99.90
13686;DHT22;6915;48.296;8.874;2024-01-07T09:48:30;2.10;99.90
13686;DHT22;6915;48.296;8.874;2024-01-07T09:51:00;2.10;99.90
13686;DHT22;6915;48.296;8.874;2024-01-07T09:53:31;2.00;99.90
13686;DHT22;6915;48.296;8.874;2024-01-07T09:56:07;2.20;99.90
13686;DHT22;6915;48.296;8.874;2024-01-07T09:58:37;2.00;99.90
13686;DHT22;6915;48.296;8.874;2024-01-07T10:01:04;2.00;99.90
13686;DHT22;6915;48.296;8.874;2024-01-07T10:03:32;2.20;99.90
13686;DHT22;6915;48.296;8.874;2024-01-07T10:06:00;2.00;99.90
13686;DHT22;6915;48.296;8.874;2024-01-07T10:08:28;1.80;99.90
13686;DHT22;6915;48.296;8.874;2024-01-07T10:10:55;1.80;99.90
13686;DHT22;6915;48.296;8.874;2024-01-07T10:13:22;1.70;99.90
13686;DHT22;6915;48.296;8.874;2024-01-07T10:15:49;1.70;99.90
13686;DHT22;6915;48.296;8.874;2024-01-07T10:18:18;1.90;99.90
13686;DHT22;6915;48.296;8.874;2024-01-07T10:20:45;1.60;99.90
13686;DHT22;6915;48.296;8.874;2024-01-07T10:23:18;1.50;99.90
13686;DHT22;6915;48.296;8.874;2024-01-07T10:25:45;1.60;99.90
13686;DHT22;6915;48.296;8.874;2024-01-07T10:28:12;1.60;99.90
13686;DHT22;6915;48.296;8.874;2024-01-07T10:30:39;1.50;99.90
13686;DHT22;6915;48.296;8.874;2024-01-07T10:33:07;1.60;99.90
13686;DHT22;6915;48.296;8.874;2024-01-07T10:35:35;1.60;99.90
13686;DHT22;6915;48.296;8.874;2024-01-07T10:38:03;1.70;99.90
13686;DHT22;6915;48.296;8.874;2024-01-07T10:40:31;1.70;99.90
13686;DHT22;6915;48.296;8.874;2024-01-07T10:42:59;1.80;99.90
13686;DHT22;6915;48.296;8.874;2024-01-07T10:45:26;1.70;99.90
13686;DHT22;6915;48.296;8.874;2024-01-07T10:47:55;1.60;99.90
13686;DHT22;6915;48.296;8.874;2024-01-07T10:50:26;1.60;99.90
13686;DHT22;6915;48.296;8.874;2024-01-07T10:52:59;1.60;99.90
13686;DHT22;6915;48.296;8.874;2024-01-07T10:55:34;1.60;99.90
13686;DHT22;6915;48.296;8.874;2024-01-07T10:58:03;1.60;99.90
13686;DHT22;6915;48.296;8.874;2024-01-07T11:00:31;1.50;99.90
13686;DHT22;6915;48.296;8.874;2024-01-07T11:03:07;1.50;99.90
13686;DHT22;6915;48.296;8.874;2024-01-07T11:05:40;1.50;99.90
13686;DHT22;6915;48.296;8.874;2024-01-07T11:08:15;1.60;99.90
13686;DHT22;6915;48.296;8.874;2024-01-07T11:10:50;1.50;99.90
13686;DHT22;6915;48.296;8.874;2024-01-07T11:13:32;1.40;99.90
13686;DHT22;6915;48.296;8.874;2024-01-07T11:16:00;1.30;99.90
13686;DHT22;6915;48.296;8.874;2024-01-07T11:18:27;1.40;99.90
13686;DHT22;6915;48.296;8.874;2024-01-07T11:20:59;1.30;99.90
13686;DHT22;6915;48.296;8.874;2024-01-07T11:23:28;1.40;99.90
13686;DHT22;6915;48.296;8.874;2024-01-07T11:25:58;1.30;99.90
13686;DHT22;6915;48.296;8.874;2024-01-07T11:28:46;1.40;99.90
13686;DHT22;6915;48.296;8.874;2024-01-07T11:31:13;1.30;99.90
13686;DHT22;6915;48.296;8.874;2024-01-07T11:33:42;1.30;99.90
13686;DHT22;6915;48.296;8.874;2024-01-07T11:36:11;1.30;99.90
13686;DHT22;6915;48.296;8.874;2024-01-07T11:38:38;1.20;99.90
13686;DHT22;6915;48.296;8.874;2024-01-07T11:41:09;1.20;99.90
13686;DHT22;6915;48.296;8.874;2024-01-07T11:43:37;1.10;99.90
13686;DHT22;6915;48.296;8.874;2024-01-07T11:46:04;1.10;99.90
13686;DHT22;6915;48.296;8.874;2024-01-07T11:48:31;1.10;99.90
13686;DHT22;6915;48.296;8.874;2024-01-07T11:50:58;0.90;99.90
13686;DHT22;6915;48.296;8.874;2024-01-07T11:53:25;0.90;99.90
13686;DHT22;6915;48.296;8.874;2024-01-07T11:55:52;0.80;99.90
13686;DHT22;6915;48.296;8.874;2024-01-07T11:58:20;0.80;99.90
13686;DHT22;6915;48.296;8.874;2024-01-07T12:00:47;0.70;99.90
13686;DHT22;6915;48.296;8.874;2024-01-07T12:03:15;0.70;99.90
13686;DHT22;6915;48.296;8.874;2024-01-07T12:05:42;0.90;99.90
13686;DHT22;6915;48.296;8.874;2024-01-07T12:08:09;0.70;99.90
13686;DHT22;6915;48.296;8.874;2024-01-07T12:10:37;0.80;99.90
13686;DHT22;6915;48.296;8.874;2024-01-07T12:13:04;0.70;99.90
13686;DHT22;6915;48.296;8.874;2024-01-07T12:15:33;0.70;99.90
13686;DHT22;6915;48.296;8.874;2024-01-07T12:18:01;0.70;99.90
13686;DHT22;6915;48.296;8.874;2024-01-07T12:20:28;0.70;99.90
13686;DHT22;6915;48.296;8.874;2024-01-07T12:22:56;0.60;99.90
13686;DHT22;6915;48.296;8.874;2024-01-07T12:25:24;0.70;99.90
13686;DHT22;6915;48.296;8.874;2024-01-07T12:27:51;0.70;99.90
13686;DHT22;6915;48.296;8.874;2024-01-07T12:30:24;0.70;99.90
13686;DHT22;6915;48.296;8.874;2024-01-07T12:32:53;0.60;99.90
13686;DHT22;6915;48.296;8.874;2024-01-07T12:35:20;0.70;99.90
13686;DHT22;6915;48.296;8.874;2024-01-07T12:37:49;0.60;99.90
13686;DHT22;6915;48.296;8.874;2024-01-07T12:40:16;0.70;99.90
13686;DHT22;6915;48.296;8.874;2024-01-07T12:42:42;0.60;99.90
13686;DHT22;6915;48.296;8.874;2024-01-07T12:45:12;0.70;99.90
13686;DHT22;6915;48.296;8.874;2024-01-07T12:47:40;0.60;99.90
13686;DHT22;6915;48.296;8.874;2024-01-07T12:50:09;0.60;99.90
13686;DHT22;6915;48.296;8.874;2024-01-07T12:52:37;0.60;99.90
13686;DHT22;6915;48.296;8.874;2024-01-07T12:55:05;0.70;99.90
13686;DHT22;6915;48.296;8.874;2024-01-07T12:57:32;0.50;99.90
13686;DHT22;6915;48.296;8.874;2024-01-07T12:59:59;0.40;99.90
13686;DHT22;6915;48.296;8.874;2024-01-07T13:02:26;0.40;99.90
13686;DHT22;6915;48.296;8.874;2024-01-07T13:04:53;0.40;99.90
13686;DHT22;6915;48.296;8.874;2024-01-07T13:07:22;0.40;99.90
13686;DHT22;6915;48.296;8.874;2024-01-07T13:09:49;0.40;99.90
13686;DHT22;6915;48.296;8.874;2024-01-07T13:12:17;0.40;99.90
13686;DHT22;6915;48.296;8.874;2024-01-07T13:14:43;0.30;99.90
13686;DHT22;6915;48.296;8.874;2024-01-07T13:17:12;0.30;99.90
13686;DHT22;6915;48.296;8.874;2024-01-07T13:19:39;0.50;99.90
13686;DHT22;6915;48.296;8.874;2024-01-07T13:22:07;0.30;99.90
13686;DHT22;6915;48.296;8.874;2024-01-07T13:24:36;0.40;99.90
13686;DHT22;6915;48.296;8.874;2024-01-07T13:27:03;0.40;99.90
13686;DHT22;6915;48.296;8.874;2024-01-07T13:29:30;0.40;99.90
13686;DHT22;6915;48.296;8.874;2024-01-07T13:31:57;0.40;99.90
13686;DHT22;6915;48.296;8.874;2024-01-07T13:34:24;0.40;99.90
13686;DHT22;6915;48.296;8.874;2024-01-07T13:36:51;0.40;99.90
13686;DHT22;6915;48.296;8.874;2024-01-07T13:39:18;0.40;99.90
13686;DHT22;6915;48.296;8.874;2024-01-07T13:41:48;0.40;99.90
13686;DHT22;6915;48.296;8.874;2024-01-07T13:44:15;0.30;99.90
13686;DHT22;6915;48.296;8.874;2024-01-07T13:46:44;0.40;99.90
13686;DHT22;6915;48.296;8.874;2024-01-07T13:49:12;0.30;99.90
13686;DHT22;6915;48.296;8.874;2024-01-07T13:51:39;0.30;99.90
13686;DHT22;6915;48.296;8.874;2024-01-07T13:54:06;0.30;99.90
13686;DHT22;6915;48.296;8.874;2024-01-07T13:56:34;0.30;99.90
13686;DHT22;6915;48.296;8.874;2024-01-07T13:59:04;0.20;99.90
13686;DHT22;6915;48.296;8.874;2024-01-07T14:01:31;0.20;99.90
13686;DHT22;6915;48.296;8.874;2024-01-07T14:03:58;0.20;99.90
13686;DHT22;6915;48.296;8.874;2024-01-07T14:06:25;0.20;99.90
13686;DHT22;6915;48.296;8.874;2024-01-07T14:08:52;0.20;99.90
13686;DHT22;6915;48.296;8.874;2024-01-07T14:11:19;0.50;99.90
13686;DHT22;6915;48.296;8.874;2024-01-07T14:13:47;0.20;99.90
13686;DHT22;6915;48.296;8.874;2024-01-07T14:16:15;0.10;99.90
13686;DHT22;6915;48.296;8.874;2024-01-07T14:18:42;0.10;99.90
13686;DHT22;6915;48.296;8.874;2024-01-07T14:21:09;0.10;99.90
13686;DHT22;6915;48.296;8.874;2024-01-07T14:23:36;0.10;99.90
13686;DHT22;6915;48.296;8.874;2024-01-07T14:26:03;0.10;99.90
13686;DHT22;6915;48.296;8.874;2024-01-07T14:28:30;0.10;99.90
13686;DHT22;6915;48.296;8.874;2024-01-07T14:30:57;0.00;99.90
13686;DHT22;6915;48.296;8.874;2024-01-07T14:33:26;0.00;99.90
13686;DHT22;6915;48.296;8.874;2024-01-07T14:35:53;0.00;99.90
13686;DHT22;6915;48.296;8.874;2024-01-07T14:38:20;0.00;99.90
13686;DHT22;6915;48.296;8.874;2024-01-07T14:40:48;-0.10;99.90
13686;DHT22;6915;48.296;8.874;2024-01-07T14:43:16;-0.10;99.90
13686;DHT22;6915;48.296;8.874;2024-01-07T14:45:43;0.00;99.90
13686;DHT22;6915;48.296;8.874;2024-01-07T14:48:10;-0.30;99.90
13686;DHT22;6915;48.296;8.874;2024-01-07T14:50:41;-0.40;99.90
13686;DHT22;6915;48.296;8.874;2024-01-07T14:53:10;-0.40;99.90
13686;DHT22;6915;48.296;8.874;2024-01-07T14:55:37;-0.50;99.90
13686;DHT22;6915;48.296;8.874;2024-01-07T14:58:04;-0.50;99.90
13686;DHT22;6915;48.296;8.874;2024-01-07T15:00:30;-0.50;99.90
13686;DHT22;6915;48.296;8.874;2024-01-07T15:02:59;-0.60;99.90
13686;DHT22;6915;48.296;8.874;2024-01-07T15:05:26;-0.60;99.90
13686;DHT22;6915;48.296;8.874;2024-01-07T15:07:54;-0.60;99.90
13686;DHT22;6915;48.296;8.874;2024-01-07T15:10:21;-0.60;99.90
13686;DHT22;6915;48.296;8.874;2024-01-07T15:12:48;-0.60;99.90
13686;DHT22;6915;48.296;8.874;2024-01-07T15:15:15;-0.40;99.90
13686;DHT22;6915;48.296;8.874;2024-01-07T15:17:44;-0.70;99.90
13686;DHT22;6915;48.296;8.874;2024-01-07T15:20:11;-0.80;99.90
13686;DHT22;6915;48.296;8.874;2024-01-07T15:22:38;-0.70;99.90
13686;DHT22;6915;48.296;8.874;2024-01-07T15:25:08;-0.70;99.90
13686;DHT22;6915;48.296;8.874;2024-01-07T15:27:35;-0.70;99.90
13686;DHT22;6915;48.296;8.874;2024-01-07T15:30:03;-0.70;99.90
13686;DHT22;6915;48.296;8.874;2024-01-07T15:32:31;-0.80;99.90
13686;DHT22;6915;48.296;8.874;2024-01-07T15:34:57;-0.50;99.90
13686;DHT22;6915;48.296;8.874;2024-01-07T15:37:25;-0.80;99.90
13686;DHT22;6915;48.296;8.874;2024-01-07T15:39:52;-0.90;99.90
13686;DHT22;6915;48.296;8.874;2024-01-07T15:42:21;-0.90;99.90
13686;DHT22;6915;48.296;8.874;2024-01-07T15:44:48;-1.00;99.90
13686;DHT22;6915;48.296;8.874;2024-01-07T15:47:15;-1.00;99.90
13686;DHT22;6915;48.296;8.874;2024-01-07T15:49:42;-1.00;99.90
13686;DHT22;6915;48.296;8.874;2024-01-07T15:52:09;-1.00;99.90
13686;DHT22;6915;48.296;8.874;2024-01-07T15:54:36;-1.00;99.90
13686;DHT22;6915;48.296;8.874;2024-01-07T15:57:03;-1.00;99.90
13686;DHT22;6915;48.296;8.874;2024-01-07T15:59:32;-1.00;99.90
13686;DHT22;6915;48.296;8.874;2024-01-07T16:02:00;-1.00;99.90